Time;durP1;ratioP1;P1;durP2;ratioP2;P2;SDS_P1;SDS_P2;PMS_P1;PMS_P2;Temp;Humidity;BMP_temperature;BMP_pressure;BME280_temperature;BME280_humidity;BME280_pressure;Samples;Min_cycle;Max_cycle;Signal;HPM_P1;HPM_P2
2023/09/07 00:00:42;;;;;;;10.73;8.10;;;17.60;97.60;;;;;;5026050;28;20500;-77
2023/09/07 00:03:08;;;;;;;13.80;8.40;;;17.50;97.40;;;;;;5026193;28;20400;-77
2023/09/07 00:05:33;;;;;;;15.20;9.70;;;17.50;98.40;;;;;;5006172;28;20400;-77
2023/09/07 00:07:59;;;;;;;13.55;8.35;;;17.50;99.00;;;;;;5027555;28;20857;-77
2023/09/07 00:10:25;;;;;;;16.00;8.53;;;17.60;98.60;;;;;;5032600;28;20392;-77
2023/09/07 00:12:51;;;;;;;13.40;9.00;;;17.60;96.00;;;;;;5024264;28;20511;-78
2023/09/07 00:15:19;;;;;;;12.10;8.98;;;17.60;95.70;;;;;;5005883;28;20416;-77
2023/09/07 00:17:45;;;;;;;14.82;9.07;;;17.90;93.10;;;;;;5020852;28;20423;-76
2023/09/07 00:20:10;;;;;;;13.30;8.75;;;17.90;90.40;;;;;;5019151;28;20381;-76
2023/09/07 00:22:37;;;;;;;14.35;10.18;;;17.70;93.00;;;;;;5001899;28;20389;-77
2023/09/07 00:25:03;;;;;;;11.07;8.38;;;17.70;92.20;;;;;;5022752;28;20488;-79
2023/09/07 00:27:29;;;;;;;16.75;10.15;;;17.60;93.00;;;;;;5023086;28;20458;-78
2023/09/07 00:29:55;;;;;;;11.77;8.70;;;17.50;95.60;;;;;;5008470;28;20412;-78
2023/09/07 00:32:21;;;;;;;15.60;9.63;;;17.50;96.30;;;;;;5022945;28;20438;-77
2023/09/07 00:34:46;;;;;;;15.40;8.80;;;17.40;96.00;;;;;;5033370;28;20381;-77
2023/09/07 00:37:12;;;;;;;13.17;9.37;;;17.30;98.10;;;;;;5033027;28;20446;-77
2023/09/07 00:39:38;;;;;;;13.27;9.47;;;17.30;99.40;;;;;;5020236;28;20397;-77
2023/09/07 00:42:04;;;;;;;14.30;9.40;;;17.20;99.90;;;;;;5010382;28;20408;-77
2023/09/07 00:44:30;;;;;;;13.37;9.00;;;17.10;99.90;;;;;;5026981;28;20385;-77
2023/09/07 00:46:56;;;;;;;15.02;9.73;;;17.10;99.90;;;;;;5033971;28;20381;-77
2023/09/07 00:49:23;;;;;;;12.75;8.65;;;17.00;99.90;;;;;;5018549;28;20388;-77
2023/09/07 00:51:49;;;;;;;13.63;9.27;;;17.10;99.90;;;;;;5015145;28;20446;-77
2023/09/07 00:54:15;;;;;;;14.02;9.60;;;17.00;99.90;;;;;;5001262;28;20475;-77
2023/09/07 00:56:41;;;;;;;13.02;8.88;;;17.10;99.90;;;;;;5024335;28;20393;-78
2023/09/07 00:59:08;;;;;;;12.60;9.02;;;17.00;99.90;;;;;;5027672;28;20401;-78
2023/09/07 01:01:35;;;;;;;17.00;9.20;;;17.10;99.90;;;;;;5022459;28;20419;-78
2023/09/07 01:04:03;;;;;;;18.35;9.70;;;16.90;99.90;;;;;;5021362;28;20392;-78
2023/09/07 01:06:37;;;;;;;15.88;9.18;;;16.90;99.90;;;;;;5020265;28;20392;-78
2023/09/07 01:09:25;;;;;;;12.18;8.93;;;16.80;99.90;;;;;;5027740;28;20381;-77
2023/09/07 01:11:51;;;;;;;14.67;8.87;;;16.80;99.90;;;;;;5008582;28;20504;-78
2023/09/07 01:14:17;;;;;;;14.32;9.48;;;16.80;99.90;;;;;;5029945;28;20934;-78
2023/09/07 01:16:43;;;;;;;11.97;8.50;;;16.70;99.90;;;;;;5030477;28;20401;-77
2023/09/07 01:19:10;;;;;;;12.90;8.33;;;16.80;99.90;;;;;;5027159;28;20846;-78
2023/09/07 01:21:37;;;;;;;12.35;8.70;;;16.70;99.90;;;;;;5023673;28;20471;-77
2023/09/07 01:24:11;;;;;;;13.90;9.52;;;16.80;99.90;;;;;;5019930;28;20862;-77
2023/09/07 01:26:40;;;;;;;12.63;8.90;;;16.70;99.90;;;;;;5020229;28;20392;-77
2023/09/07 01:29:06;;;;;;;14.85;8.80;;;16.70;99.90;;;;;;5017072;28;20439;-77
2023/09/07 01:31:38;;;;;;;14.88;8.95;;;16.70;99.90;;;;;;5013982;28;20385;-77
2023/09/07 01:34:04;;;;;;;17.42;9.15;;;16.70;99.90;;;;;;5014325;28;20380;-77
2023/09/07 01:36:30;;;;;;;12.75;8.05;;;16.60;99.90;;;;;;5014984;28;20424;-77
2023/09/07 01:38:56;;;;;;;11.13;8.50;;;16.60;99.90;;;;;;4997229;28;20396;-77
2023/09/07 01:41:21;;;;;;;11.93;8.83;;;16.60;99.90;;;;;;5014837;28;20529;-78
2023/09/07 01:43:47;;;;;;;11.55;8.75;;;16.60;99.90;;;;;;5014384;28;20459;-77
2023/09/07 01:46:13;;;;;;;13.25;9.05;;;16.50;99.90;;;;;;5013258;28;20439;-77
2023/09/07 01:48:38;;;;;;;13.32;8.50;;;16.50;99.90;;;;;;5017371;28;20381;-77
2023/09/07 01:51:04;;;;;;;14.00;8.90;;;16.50;99.90;;;;;;5022110;28;20397;-77
2023/09/07 01:53:29;;;;;;;17.00;9.80;;;16.60;99.90;;;;;;5018385;28;20646;-77
2023/09/07 01:55:59;;;;;;;15.20;8.52;;;16.50;99.90;;;;;;5019825;28;20407;-77
2023/09/07 01:58:25;;;;;;;13.68;9.05;;;16.50;99.90;;;;;;5003189;28;20424;-77
2023/09/07 02:00:52;;;;;;;13.00;9.00;;;16.50;99.90;;;;;;5009421;28;20432;-77
2023/09/07 02:03:17;;;;;;;10.23;8.50;;;16.30;99.90;;;;;;5027264;28;20410;-77
2023/09/07 02:05:45;;;;;;;12.03;8.60;;;16.40;99.90;;;;;;5008314;28;20409;-78
2023/09/07 02:08:11;;;;;;;12.65;8.13;;;16.30;99.90;;;;;;5021645;28;20924;-77
2023/09/07 02:10:37;;;;;;;11.07;8.43;;;16.30;99.90;;;;;;5007347;28;20397;-78
2023/09/07 02:13:03;;;;;;;12.07;8.90;;;16.20;99.90;;;;;;5004790;28;20488;-77
2023/09/07 02:15:29;;;;;;;11.50;8.10;;;16.20;99.90;;;;;;5006515;28;20828;-78
2023/09/07 02:17:54;;;;;;;11.47;8.70;;;16.20;99.90;;;;;;5027552;28;20397;-78
2023/09/07 02:20:20;;;;;;;15.60;8.73;;;16.20;99.90;;;;;;5014563;28;20443;-77
2023/09/07 02:22:46;;;;;;;12.23;8.60;;;16.20;99.90;;;;;;5029685;28;20385;-78
2023/09/07 02:25:12;;;;;;;11.35;8.73;;;16.20;99.90;;;;;;5015739;28;20403;-78
2023/09/07 02:27:37;;;;;;;13.38;8.50;;;16.10;99.90;;;;;;5029524;28;20440;-78
2023/09/07 02:30:04;;;;;;;13.40;8.90;;;16.10;99.90;;;;;;5030029;28;20442;-78
2023/09/07 02:32:30;;;;;;;11.45;8.20;;;16.10;99.90;;;;;;5029491;28;20440;-77
2023/09/07 02:34:55;;;;;;;11.23;8.05;;;16.10;99.90;;;;;;5011822;28;20380;-78
2023/09/07 02:37:21;;;;;;;13.73;8.73;;;16.10;99.90;;;;;;5029743;28;20506;-78
2023/09/07 02:39:47;;;;;;;14.68;9.35;;;16.10;99.90;;;;;;5014981;28;20444;-77
2023/09/07 02:42:12;;;;;;;10.70;8.30;;;16.10;99.90;;;;;;5033290;28;20412;-75
2023/09/07 02:44:38;;;;;;;17.17;9.40;;;16.00;99.90;;;;;;5028234;28;20408;-77
2023/09/07 02:47:03;;;;;;;13.23;9.07;;;16.00;99.90;;;;;;5032983;28;20381;-76
2023/09/07 02:49:29;;;;;;;15.18;10.07;;;16.00;99.90;;;;;;5006769;28;20396;-78
2023/09/07 02:51:55;;;;;;;13.60;9.47;;;16.00;99.90;;;;;;5027414;28;20449;-78
2023/09/07 02:54:20;;;;;;;15.10;9.10;;;15.90;99.90;;;;;;5033282;28;20384;-77
2023/09/07 02:56:46;;;;;;;16.00;9.45;;;15.90;99.90;;;;;;5032859;28;20380;-77
2023/09/07 02:59:11;;;;;;;13.70;9.13;;;15.90;99.90;;;;;;5026201;28;20388;-79
2023/09/07 03:01:39;;;;;;;15.80;9.00;;;16.00;99.90;;;;;;5021850;28;20516;-78
2023/09/07 03:04:05;;;;;;;16.58;9.20;;;16.00;99.90;;;;;;5026087;28;20397;-77
2023/09/07 03:06:31;;;;;;;11.13;8.70;;;15.90;99.90;;;;;;5024482;28;20478;-78
2023/09/07 03:08:57;;;;;;;13.27;8.90;;;15.90;99.90;;;;;;5023186;28;20504;-78
2023/09/07 03:11:23;;;;;;;15.33;9.20;;;15.80;99.90;;;;;;5022183;28;20393;-76
2023/09/07 03:13:48;;;;;;;12.18;9.10;;;15.80;99.90;;;;;;5021318;28;20822;-76
2023/09/07 03:16:14;;;;;;;13.47;8.80;;;15.80;99.90;;;;;;5021057;28;20424;-78
2023/09/07 03:18:40;;;;;;;13.38;8.30;;;15.90;99.90;;;;;;5019684;28;20727;-76
2023/09/07 03:21:06;;;;;;;14.00;8.75;;;15.90;99.90;;;;;;5003009;28;20422;-77
2023/09/07 03:23:32;;;;;;;13.02;9.00;;;15.90;99.90;;;;;;5004929;28;20385;-76
2023/09/07 03:25:58;;;;;;;11.73;8.45;;;15.80;99.90;;;;;;5021370;28;20388;-77
2023/09/07 03:28:27;;;;;;;11.65;8.70;;;15.80;99.90;;;;;;5018284;28;20396;-77
2023/09/07 03:30:56;;;;;;;10.30;8.50;;;15.90;99.90;;;;;;5016636;28;20397;-77
2023/09/07 03:33:22;;;;;;;15.80;9.20;;;15.90;99.90;;;;;;5015375;28;20473;-77
2023/09/07 03:35:48;;;;;;;12.00;8.43;;;15.80;99.90;;;;;;5015002;28;20802;-77
2023/09/07 03:38:14;;;;;;;14.68;9.27;;;15.80;99.90;;;;;;5017240;28;20444;-77
2023/09/07 03:40:39;;;;;;;12.45;8.65;;;15.80;99.90;;;;;;5000436;28;20401;-78
2023/09/07 03:43:05;;;;;;;20.77;10.50;;;15.80;99.90;;;;;;5021288;28;20380;-77
2023/09/07 03:45:30;;;;;;;12.30;8.60;;;15.90;99.90;;;;;;5015928;28;20420;-77
2023/09/07 03:47:56;;;;;;;14.88;9.20;;;16.10;99.90;;;;;;5015693;28;20391;-76
2023/09/07 03:50:22;;;;;;;15.77;9.50;;;16.40;94.50;;;;;;5023675;28;20456;-77
2023/09/07 03:52:47;;;;;;;12.87;9.10;;;16.50;89.40;;;;;;5026259;28;20449;-77
2023/09/07 03:55:13;;;;;;;11.13;8.70;;;16.70;86.10;;;;;;5025906;28;20419;-77
2023/09/07 03:57:39;;;;;;;11.33;8.40;;;16.80;84.40;;;;;;5024483;28;20385;-77
2023/09/07 04:00:08;;;;;;;11.83;8.07;;;16.80;84.20;;;;;;5018616;28;20403;-77
2023/09/07 04:02:34;;;;;;;11.05;8.35;;;16.60;86.30;;;;;;5023154;28;20400;-76
2023/09/07 04:05:01;;;;;;;12.53;8.20;;;16.70;85.90;;;;;;5004085;28;20407;-78
2023/09/07 04:07:27;;;;;;;11.60;8.48;;;16.70;84.70;;;;;;4999070;28;20414;-78
2023/09/07 04:09:52;;;;;;;11.10;8.18;;;16.70;83.50;;;;;;5015397;28;20385;-77
2023/09/07 04:12:18;;;;;;;12.10;8.60;;;16.60;84.20;;;;;;5025931;28;20393;-77
2023/09/07 04:14:44;;;;;;;10.83;8.47;;;16.70;83.50;;;;;;5023144;28;20396;-77
2023/09/07 04:17:10;;;;;;;15.75;8.75;;;16.70;82.70;;;;;;5023862;28;20389;-76
2023/09/07 04:19:35;;;;;;;16.55;9.43;;;16.70;82.70;;;;;;5023207;28;20393;-77
2023/09/07 04:22:01;;;;;;;18.35;8.93;;;16.80;81.40;;;;;;5002979;28;20407;-77
2023/09/07 04:24:29;;;;;;;14.03;8.67;;;16.70;80.80;;;;;;5021646;28;20916;-77
2023/09/07 04:27:01;;;;;;;10.93;8.30;;;16.70;80.90;;;;;;5021587;28;20834;-76
2023/09/07 04:29:27;;;;;;;15.25;9.00;;;16.60;82.70;;;;;;5019571;28;20880;-78
2023/09/07 04:31:53;;;;;;;15.57;8.90;;;16.50;84.60;;;;;;5021970;28;20397;-77
2023/09/07 04:34:21;;;;;;;12.60;9.73;;;16.50;84.50;;;;;;5004317;28;20412;-77
2023/09/07 04:36:46;;;;;;;13.57;9.57;;;16.50;83.30;;;;;;5021054;28;20431;-77
2023/09/07 04:39:14;;;;;;;19.27;9.50;;;16.50;82.90;;;;;;5002529;28;20754;-77
2023/09/07 04:41:39;;;;;;;15.23;9.20;;;16.40;84.70;;;;;;5021338;28;20400;-76
2023/09/07 04:44:05;;;;;;;15.88;9.75;;;16.30;86.50;;;;;;5021495;28;20403;-76
2023/09/07 04:46:31;;;;;;;14.40;9.27;;;16.20;87.90;;;;;;5004240;28;20417;-77
2023/09/07 04:48:56;;;;;;;14.95;8.80;;;16.00;90.80;;;;;;5032440;28;20405;-75
2023/09/07 04:51:23;;;;;;;12.60;9.10;;;16.10;90.20;;;;;;5034786;28;20420;-76
2023/09/07 04:53:49;;;;;;;16.55;10.40;;;16.00;90.20;;;;;;5032749;28;20389;-76
2023/09/07 04:56:16;;;;;;;12.27;8.70;;;16.20;87.40;;;;;;5021694;28;20385;-78
2023/09/07 04:58:41;;;;;;;14.32;8.90;;;16.20;84.90;;;;;;5029669;28;20453;-76
2023/09/07 05:01:09;;;;;;;15.63;8.40;;;16.20;85.10;;;;;;5032187;28;20454;-77
2023/09/07 05:03:36;;;;;;;17.20;9.23;;;16.30;82.10;;;;;;5021774;28;20404;-75
2023/09/07 05:06:03;;;;;;;16.27;8.95;;;16.40;81.60;;;;;;5022684;28;20555;-78
2023/09/07 05:08:29;;;;;;;18.47;10.30;;;16.30;81.20;;;;;;5022133;28;20393;-77
2023/09/07 05:10:59;;;;;;;13.38;9.68;;;16.10;85.50;;;;;;5023994;28;20401;-77
2023/09/07 05:13:26;;;;;;;20.48;9.18;;;16.20;85.30;;;;;;5034131;28;20397;-77
2023/09/07 05:15:52;;;;;;;14.17;9.13;;;16.30;82.50;;;;;;5012657;28;20399;-77
2023/09/07 05:18:18;;;;;;;17.83;9.52;;;16.20;84.20;;;;;;5030744;28;20436;-77
2023/09/07 05:20:45;;;;;;;18.50;9.80;;;16.10;86.00;;;;;;5011497;28;20409;-76
2023/09/07 05:23:15;;;;;;;12.90;9.48;;;16.00;88.30;;;;;;5023841;28;20846;-77
2023/09/07 05:25:49;;;;;;;14.50;9.60;;;15.90;91.10;;;;;;5020410;28;20499;-76
2023/09/07 05:28:15;;;;;;;13.35;9.32;;;15.90;91.60;;;;;;5015952;28;20381;-78
2023/09/07 05:30:44;;;;;;;13.10;8.48;;;16.10;90.00;;;;;;5021783;28;20393;-77
2023/09/07 05:33:10;;;;;;;12.18;8.52;;;15.90;91.70;;;;;;5019037;28;20464;-78
2023/09/07 05:35:37;;;;;;;16.02;8.98;;;15.90;93.00;;;;;;5017849;28;20497;-78
2023/09/07 05:38:04;;;;;;;13.60;9.27;;;15.90;94.40;;;;;;4998769;28;20447;-77
2023/09/07 05:40:33;;;;;;;19.53;9.57;;;15.90;94.80;;;;;;5020469;28;20811;-77
2023/09/07 05:42:59;;;;;;;14.77;9.30;;;16.00;94.80;;;;;;4999904;28;20385;-77
2023/09/07 05:45:25;;;;;;;12.98;8.95;;;16.00;92.60;;;;;;5013612;28;20761;-74
2023/09/07 05:47:50;;;;;;;11.85;9.40;;;16.10;92.80;;;;;;5013642;28;20381;-75
2023/09/07 05:50:16;;;;;;;12.37;8.60;;;16.30;89.30;;;;;;5013022;28;20385;-75
2023/09/07 05:52:41;;;;;;;12.13;8.93;;;16.50;85.80;;;;;;5012204;28;20442;-74
2023/09/07 05:55:07;;;;;;;13.27;8.98;;;16.60;83.00;;;;;;5012867;28;20417;-75
2023/09/07 05:57:33;;;;;;;14.27;9.00;;;16.70;83.20;;;;;;5012558;28;20389;-74
2023/09/07 05:59:58;;;;;;;13.90;8.77;;;16.70;83.30;;;;;;5012969;28;20385;-75
2023/09/07 06:02:24;;;;;;;16.17;10.17;;;16.80;80.40;;;;;;5012317;28;20812;-75
2023/09/07 06:04:50;;;;;;;17.17;9.55;;;16.90;79.80;;;;;;5013439;28;20443;-76
2023/09/07 06:07:15;;;;;;;16.33;9.85;;;17.00;79.10;;;;;;5012396;28;20515;-75
2023/09/07 06:09:41;;;;;;;12.70;9.10;;;17.10;78.50;;;;;;5012898;28;20380;-74
2023/09/07 06:12:06;;;;;;;15.67;9.30;;;17.10;77.40;;;;;;5012951;28;20388;-75
2023/09/07 06:14:32;;;;;;;14.65;9.35;;;17.10;79.00;;;;;;5012329;28;20540;-75
2023/09/07 06:16:58;;;;;;;11.70;8.47;;;17.20;77.00;;;;;;5012502;28;20392;-75
2023/09/07 06:19:23;;;;;;;15.00;9.20;;;17.40;73.80;;;;;;5013543;28;20389;-76
2023/09/07 06:21:49;;;;;;;14.02;8.13;;;17.70;70.60;;;;;;5013837;28;20491;-76
2023/09/07 06:24:14;;;;;;;14.40;9.40;;;17.70;71.40;;;;;;5014167;28;20393;-76
2023/09/07 06:26:40;;;;;;;15.37;9.07;;;17.80;71.10;;;;;;4995704;28;20400;-76
2023/09/07 06:29:05;;;;;;;13.18;8.93;;;17.90;71.30;;;;;;5013372;28;20388;-76
2023/09/07 06:31:31;;;;;;;15.13;8.90;;;18.00;69.20;;;;;;5011855;28;20388;-76
2023/09/07 06:33:57;;;;;;;20.17;9.17;;;18.00;69.80;;;;;;5012299;28;20384;-75
2023/09/07 06:36:22;;;;;;;15.10;8.40;;;18.10;69.00;;;;;;5011818;28;20782;-76
2023/09/07 06:38:48;;;;;;;15.57;8.93;;;18.30;66.80;;;;;;4994223;28;20455;-76
2023/09/07 06:41:13;;;;;;;13.10;8.40;;;18.50;62.30;;;;;;5011287;28;20890;-76
2023/09/07 06:43:40;;;;;;;14.70;9.00;;;18.70;59.50;;;;;;5011440;28;20385;-76
2023/09/07 06:46:08;;;;;;;16.27;8.90;;;18.90;57.70;;;;;;5011766;28;20421;-76
2023/09/07 06:48:35;;;;;;;11.98;8.20;;;19.00;56.50;;;;;;4994120;28;20439;-75
2023/09/07 06:51:04;;;;;;;16.33;9.20;;;19.10;55.20;;;;;;5011558;28;20465;-75
2023/09/07 06:53:30;;;;;;;14.70;9.40;;;19.10;55.30;;;;;;5010999;28;20388;-74
2023/09/07 06:56:04;;;;;;;16.48;8.90;;;19.20;55.50;;;;;;5011447;28;20393;-77
2023/09/07 06:58:32;;;;;;;17.17;8.75;;;19.20;54.30;;;;;;5010850;28;20389;-75
2023/09/07 07:00:58;;;;;;;13.95;8.80;;;19.30;53.00;;;;;;5010623;28;20919;-75
2023/09/07 07:03:28;;;;;;;15.93;8.50;;;19.40;51.50;;;;;;5010737;28;20436;-74
2023/09/07 07:05:54;;;;;;;14.20;9.15;;;19.40;51.40;;;;;;5011316;28;21108;-74
2023/09/07 07:08:19;;;;;;;13.30;8.40;;;19.60;50.20;;;;;;5010993;28;20392;-76
2023/09/07 07:10:45;;;;;;;13.98;8.70;;;19.70;49.50;;;;;;5010957;28;20397;-75
2023/09/07 07:13:11;;;;;;;13.82;8.02;;;19.80;49.10;;;;;;5010959;28;20774;-75
2023/09/07 07:15:36;;;;;;;13.43;8.17;;;19.90;46.40;;;;;;5011138;28;20416;-76
2023/09/07 07:18:08;;;;;;;14.10;7.97;;;20.00;46.00;;;;;;5011408;28;20396;-75
2023/09/07 07:20:34;;;;;;;13.27;7.38;;;20.10;45.40;;;;;;5011389;28;20385;-74
2023/09/07 07:23:00;;;;;;;12.80;7.32;;;20.40;43.90;;;;;;5011378;28;20758;-75
2023/09/07 07:25:25;;;;;;;11.43;6.33;;;20.60;42.70;;;;;;5011880;28;20385;-74
2023/09/07 07:27:51;;;;;;;12.90;8.07;;;20.70;42.50;;;;;;4993231;28;20468;-76
2023/09/07 07:30:16;;;;;;;11.20;7.60;;;20.90;41.80;;;;;;4993390;28;20424;-76
2023/09/07 07:32:42;;;;;;;10.40;7.17;;;20.90;41.70;;;;;;5010995;28;20705;-74
2023/09/07 07:35:08;;;;;;;9.70;6.50;;;21.00;41.50;;;;;;5010688;28;20397;-74
2023/09/07 07:37:33;;;;;;;13.13;7.70;;;21.10;41.10;;;;;;5010808;28;20443;-74
2023/09/07 07:39:59;;;;;;;8.13;6.87;;;21.20;40.80;;;;;;5011222;28;20404;-74
2023/09/07 07:42:24;;;;;;;11.70;6.70;;;21.50;40.20;;;;;;5010622;28;20974;-75
2023/09/07 07:44:50;;;;;;;11.40;7.60;;;21.70;39.90;;;;;;5013883;28;20963;-75
2023/09/07 07:47:16;;;;;;;12.03;6.67;;;21.90;39.00;;;;;;5015156;28;20408;-79
2023/09/07 07:49:41;;;;;;;10.52;6.15;;;21.90;39.10;;;;;;5015729;28;20381;-75
2023/09/07 07:52:07;;;;;;;13.20;5.70;;;22.00;37.90;;;;;;5016581;28;20452;-75
2023/09/07 07:54:33;;;;;;;11.00;6.13;;;22.20;34.80;;;;;;5016899;28;20416;-75
2023/09/07 07:56:59;;;;;;;7.35;5.20;;;22.40;34.60;;;;;;5016815;28;20384;-75
2023/09/07 07:59:25;;;;;;;12.43;5.97;;;22.60;32.90;;;;;;5018244;28;20446;-75
2023/09/07 08:01:50;;;;;;;9.73;5.37;;;22.80;31.40;;;;;;5028992;28;20924;-75
2023/09/07 08:04:16;;;;;;;18.58;11.70;;;23.00;29.70;;;;;;5024701;28;20747;-75
2023/09/07 08:06:41;;;;;;;13.27;6.70;;;23.20;29.50;;;;;;5035802;28;20448;-76
2023/09/07 08:09:08;;;;;;;7.07;4.95;;;23.30;28.50;;;;;;5040076;28;20387;-75
2023/09/07 08:11:33;;;;;;;9.15;5.70;;;23.50;27.80;;;;;;5036280;28;20520;-75
2023/09/07 08:13:59;;;;;;;8.40;5.50;;;23.50;26.90;;;;;;5039730;28;20971;-74
2023/09/07 08:16:25;;;;;;;12.27;5.60;;;23.70;27.60;;;;;;5026001;28;20447;-75
2023/09/07 08:18:50;;;;;;;10.18;5.40;;;23.70;26.50;;;;;;5040553;28;20395;-76
2023/09/07 08:21:16;;;;;;;8.97;5.50;;;23.80;25.60;;;;;;5038250;28;20406;-74
2023/09/07 08:23:42;;;;;;;9.03;5.80;;;23.90;25.60;;;;;;5036345;28;20439;-75
2023/09/07 08:26:09;;;;;;;8.55;5.78;;;24.00;24.90;;;;;;5034229;28;20402;-76
2023/09/07 08:28:34;;;;;;;8.20;5.65;;;24.00;25.40;;;;;;5034243;28;20387;-75
2023/09/07 08:31:00;;;;;;;10.97;6.47;;;24.10;25.70;;;;;;5014550;28;20757;-76
2023/09/07 08:33:30;;;;;;;10.10;5.90;;;24.20;26.40;;;;;;4997223;28;20430;-75
2023/09/07 08:35:56;;;;;;;8.80;5.60;;;24.40;25.80;;;;;;5013425;28;20472;-76
2023/09/07 08:38:25;;;;;;;8.70;5.70;;;24.50;24.40;;;;;;5022480;28;20414;-77
2023/09/07 08:40:54;;;;;;;5.40;4.90;;;24.50;24.20;;;;;;5029731;28;20418;-75
2023/09/07 08:43:20;;;;;;;10.25;5.90;;;24.60;24.70;;;;;;5015851;28;20402;-75
2023/09/07 08:45:52;;;;;;;6.93;5.10;;;24.60;24.70;;;;;;5032770;28;20430;-76
2023/09/07 08:48:18;;;;;;;6.15;5.18;;;24.70;23.60;;;;;;5015633;28;20395;-76
2023/09/07 08:50:49;;;;;;;10.83;5.30;;;24.70;24.20;;;;;;5032873;28;20386;-75
2023/09/07 08:53:17;;;;;;;10.93;5.53;;;24.90;24.10;;;;;;5033047;28;20463;-74
2023/09/07 08:55:43;;;;;;;7.83;5.77;;;25.00;22.70;;;;;;5032613;28;20391;-75
2023/09/07 08:58:09;;;;;;;7.00;5.17;;;25.10;23.00;;;;;;5019487;28;20439;-75
2023/09/07 09:00:36;;;;;;;7.13;5.75;;;25.20;22.40;;;;;;4995572;28;20468;-74
2023/09/07 09:03:03;;;;;;;8.57;6.10;;;25.20;22.30;;;;;;5014199;28;20503;-76
2023/09/07 09:05:30;;;;;;;8.85;5.72;;;25.30;22.40;;;;;;5013302;28;20470;-75
2023/09/07 09:08:04;;;;;;;7.88;6.38;;;25.30;21.30;;;;;;5013335;28;20388;-77
2023/09/07 09:10:29;;;;;;;10.57;5.63;;;25.40;21.90;;;;;;5013596;28;20890;-76
2023/09/07 09:12:55;;;;;;;7.53;5.20;;;25.40;22.30;;;;;;5013578;28;20527;-76
2023/09/07 09:15:23;;;;;;;10.00;6.30;;;25.40;21.90;;;;;;5033057;28;20475;-76
2023/09/07 09:17:49;;;;;;;6.60;4.90;;;25.50;22.60;;;;;;5033140;28;20876;-76
2023/09/07 09:20:24;;;;;;;11.77;5.55;;;25.50;22.80;;;;;;5037237;28;20470;-77
2023/09/07 09:22:54;;;;;;;5.95;4.75;;;25.50;22.30;;;;;;5041673;28;20407;-77
2023/09/07 09:25:21;;;;;;;7.63;5.50;;;25.60;21.90;;;;;;5020861;28;20438;-77
2023/09/07 09:27:47;;;;;;;10.25;6.18;;;25.60;21.90;;;;;;5037483;28;20387;-76
2023/09/07 09:30:15;;;;;;;8.80;5.65;;;25.70;21.40;;;;;;5035827;28;20513;-77
2023/09/07 09:32:42;;;;;;;9.95;6.50;;;25.80;21.20;;;;;;5037303;28;20383;-76
2023/09/07 09:35:09;;;;;;;11.32;7.65;;;25.90;20.70;;;;;;5037739;28;20405;-77
2023/09/07 09:37:45;;;;;;;9.50;5.85;;;25.90;21.60;;;;;;5036882;28;20456;-76
2023/09/07 09:40:13;;;;;;;8.47;5.10;;;26.00;21.60;;;;;;5049137;28;20453;-77
2023/09/07 09:42:42;;;;;;;7.55;5.53;;;26.00;21.60;;;;;;5035027;28;20835;-77
2023/09/07 09:45:08;;;;;;;6.15;4.85;;;26.10;20.70;;;;;;5053256;28;20475;-77
2023/09/07 09:47:40;;;;;;;9.07;5.90;;;26.10;20.00;;;;;;5046108;28;20478;-77
2023/09/07 09:50:07;;;;;;;7.65;5.00;;;26.10;20.40;;;;;;5041518;28;20419;-78
2023/09/07 09:52:36;;;;;;;7.85;5.18;;;26.10;20.10;;;;;;5037229;28;20395;-77
2023/09/07 09:55:05;;;;;;;5.97;5.20;;;26.20;20.20;;;;;;5043904;28;20395;-78
2023/09/07 09:57:31;;;;;;;5.85;4.90;;;26.10;20.70;;;;;;5047075;28;20455;-78
2023/09/07 09:59:59;;;;;;;9.65;5.80;;;26.20;21.00;;;;;;5038822;28;20474;-78
2023/09/07 10:02:26;;;;;;;7.65;5.15;;;26.30;20.10;;;;;;5038972;28;20411;-77
2023/09/07 10:04:52;;;;;;;7.85;5.18;;;26.30;20.00;;;;;;5037061;28;20393;-79
2023/09/07 10:07:19;;;;;;;7.47;5.05;;;26.40;20.20;;;;;;5038973;28;20902;-78
2023/09/07 10:09:45;;;;;;;8.05;5.00;;;26.50;20.20;;;;;;5020535;28;20402;-77
2023/09/07 10:12:13;;;;;;;8.87;6.30;;;26.40;20.10;;;;;;5018470;28;20393;-78
2023/09/07 10:14:44;;;;;;;7.60;5.43;;;26.60;19.90;;;;;;5035666;28;20864;-78
2023/09/07 10:17:10;;;;;;;10.50;5.30;;;26.70;19.20;;;;;;5036083;28;20490;-78
2023/09/07 10:19:38;;;;;;;8.18;5.40;;;26.70;19.20;;;;;;5018219;28;20387;-78
2023/09/07 10:22:03;;;;;;;6.68;5.82;;;26.70;19.00;;;;;;5034716;28;20538;-78
2023/09/07 10:24:39;;;;;;;7.80;5.00;;;26.90;19.00;;;;;;5040322;28;20423;-78
2023/09/07 10:27:06;;;;;;;6.75;4.70;;;26.80;18.70;;;;;;5047386;28;20392;-78
2023/09/07 10:29:46;;;;;;;7.30;5.10;;;26.80;18.40;;;;;;5043184;28;20928;-79
2023/09/07 10:32:14;;;;;;;10.25;5.22;;;26.80;18.70;;;;;;5035944;28;20419;-78
2023/09/07 10:34:43;;;;;;;6.45;4.97;;;27.00;18.60;;;;;;5035542;28;20390;-77
2023/09/07 10:37:12;;;;;;;11.75;5.80;;;27.10;19.10;;;;;;5034126;28;20521;-77
2023/09/07 10:39:44;;;;;;;10.20;4.80;;;27.20;19.10;;;;;;5032208;28;20887;-76
2023/09/07 10:42:23;;;;;;;10.75;4.70;;;27.20;18.10;;;;;;5032777;28;20478;-78
2023/09/07 10:44:49;;;;;;;5.30;4.72;;;27.20;18.20;;;;;;5034789;28;20387;-78
2023/09/07 10:47:15;;;;;;;7.97;5.53;;;27.20;18.10;;;;;;5035796;28;20434;-78
2023/09/07 10:49:40;;;;;;;5.35;4.85;;;27.30;18.60;;;;;;5034802;28;20399;-77
2023/09/07 10:52:06;;;;;;;8.00;6.20;;;27.40;17.80;;;;;;5036483;28;20387;-77
2023/09/07 10:54:31;;;;;;;7.22;5.00;;;27.50;18.50;;;;;;5036378;28;20383;-78
2023/09/07 10:57:11;;;;;;;8.03;5.30;;;27.60;17.40;;;;;;5034478;28;20395;-77
2023/09/07 10:59:36;;;;;;;8.77;5.60;;;27.50;18.20;;;;;;5016436;28;20391;-77
2023/09/07 11:02:06;;;;;;;8.10;4.95;;;27.60;18.10;;;;;;5032936;28;20402;-77
2023/09/07 11:04:31;;;;;;;5.35;4.80;;;27.70;17.70;;;;;;5042350;28;20471;-77
2023/09/07 11:06:57;;;;;;;9.77;6.40;;;27.70;17.50;;;;;;5037229;28;20402;-78
2023/09/07 11:09:23;;;;;;;12.95;5.40;;;27.80;18.00;;;;;;5037964;28;20394;-77
2023/09/07 11:11:48;;;;;;;9.03;5.20;;;27.80;17.30;;;;;;5027185;28;20395;-76
2023/09/07 11:14:14;;;;;;;8.43;4.88;;;28.00;17.30;;;;;;5039392;28;20390;-76
2023/09/07 11:16:41;;;;;;;7.80;4.50;;;28.00;17.40;;;;;;5040015;28;20390;-77
2023/09/07 11:19:08;;;;;;;7.30;4.90;;;28.00;17.00;;;;;;5037175;28;20451;-76
2023/09/07 11:21:35;;;;;;;9.20;6.10;;;28.10;17.20;;;;;;5035958;28;20427;-77
2023/09/07 11:24:04;;;;;;;7.57;4.80;;;28.20;17.90;;;;;;5034226;28;20718;-76
2023/09/07 11:26:40;;;;;;;8.25;5.00;;;28.20;17.10;;;;;;5045116;28;20499;-77
2023/09/07 11:29:05;;;;;;;6.60;5.25;;;28.30;16.90;;;;;;5048820;28;20379;-78
2023/09/07 11:31:32;;;;;;;5.60;5.00;;;28.20;17.40;;;;;;5034481;28;20390;-78
2023/09/07 11:33:57;;;;;;;5.78;4.80;;;28.30;17.10;;;;;;5019821;28;20399;-79
2023/09/07 11:36:24;;;;;;;8.95;5.05;;;28.30;17.50;;;;;;5033984;28;20401;-76
2023/09/07 11:38:50;;;;;;;6.07;4.88;;;28.40;17.10;;;;;;5015105;28;20417;-76
2023/09/07 11:41:15;;;;;;;6.50;4.60;;;28.40;17.40;;;;;;5034425;28;20403;-78
2023/09/07 11:43:41;;;;;;;8.80;4.97;;;28.40;17.10;;;;;;5035422;28;20391;-78
2023/09/07 11:46:07;;;;;;;9.60;5.30;;;28.40;17.50;;;;;;5032849;28;20383;-76
2023/09/07 11:48:34;;;;;;;7.30;5.15;;;28.50;16.50;;;;;;5046642;28;20390;-78
2023/09/07 11:51:00;;;;;;;5.93;4.90;;;28.60;15.90;;;;;;5045343;28;20490;-77
2023/09/07 11:53:25;;;;;;;6.97;4.88;;;28.70;15.80;;;;;;5035663;28;20418;-76
2023/09/07 11:55:51;;;;;;;5.80;5.10;;;28.70;16.20;;;;;;5031671;28;20868;-76
2023/09/07 11:58:16;;;;;;;6.60;4.50;;;28.80;16.00;;;;;;5030545;28;20795;-77
2023/09/07 12:00:43;;;;;;;7.25;5.45;;;28.80;15.00;;;;;;5032178;28;20421;-76
2023/09/07 12:03:08;;;;;;;7.10;4.70;;;28.90;15.70;;;;;;5041654;28;20403;-76
2023/09/07 12:05:35;;;;;;;7.37;4.40;;;28.90;15.00;;;;;;5033846;28;20390;-76
2023/09/07 12:08:01;;;;;;;6.45;4.55;;;28.90;14.70;;;;;;5033095;28;20390;-77
2023/09/07 12:10:27;;;;;;;8.00;6.23;;;28.90;14.50;;;;;;5033162;28;20437;-77
2023/09/07 12:12:52;;;;;;;5.10;4.60;;;28.90;15.20;;;;;;5034529;28;20399;-76
2023/09/07 12:15:18;;;;;;;6.17;4.87;;;28.90;14.60;;;;;;5032715;28;20378;-78
2023/09/07 12:17:43;;;;;;;7.10;5.00;;;29.00;15.00;;;;;;5034075;28;20472;-77
2023/09/07 12:20:10;;;;;;;6.55;5.10;;;29.10;15.20;;;;;;5036082;28;20375;-77
2023/09/07 12:22:37;;;;;;;7.00;5.30;;;29.20;14.50;;;;;;5043868;28;20399;-77
2023/09/07 12:25:06;;;;;;;10.30;5.00;;;29.30;15.20;;;;;;5035336;28;20717;-77
2023/09/07 12:27:34;;;;;;;8.05;5.53;;;29.40;14.80;;;;;;5036423;28;20394;-77
2023/09/07 12:30:02;;;;;;;13.23;5.10;;;29.40;15.10;;;;;;5019280;28;20398;-77
2023/09/07 12:32:27;;;;;;;8.82;5.20;;;29.50;14.80;;;;;;5035934;28;20745;-77
2023/09/07 12:34:53;;;;;;;6.87;4.80;;;29.60;13.10;;;;;;5036256;28;20402;-76
2023/09/07 12:37:19;;;;;;;9.80;5.20;;;29.60;13.30;;;;;;5036155;28;20395;-76